Time;durP1;ratioP1;P1;durP2;ratioP2;P2;SDS_P1;SDS_P2;PMS_P1;PMS_P2;Temp;Humidity;BMP_temperature;BMP_pressure;BME280_temperature;BME280_humidity;BME280_pressure;Samples;Min_cycle;Max_cycle;Signal;HPM_P1;HPM_P2
2023/03/21 00:01:28;;;;;;;;;;;;;;;19.78;50.34;101182.44;4949356;28;4178;-61
2023/03/21 00:03:54;;;;;;;;;;;;;;;19.77;50.32;101192.44;4948774;28;4210;-61
2023/03/21 00:06:21;;;;;;;;;;;;;;;19.77;50.44;101183.06;4947625;28;5284;-61
2023/03/21 00:08:48;;;;;;;;;;;;;;;19.76;50.53;101184.44;4948288;28;4133;-62
2023/03/21 00:11:14;;;;;;;;;;;;;;;19.76;50.54;101178.69;4947132;28;4227;-61
2023/03/21 00:13:43;;;;;;;;;;;;;;;19.75;50.56;101180.09;4947880;28;4015;-61
2023/03/21 00:16:14;;;;;;;;;;;;;;;19.75;50.48;101185.84;4940100;28;5422;-61
2023/03/21 00:18:46;;;;;;;;;;;;;;;19.74;50.43;101181.47;4942706;28;4317;-61
2023/03/21 00:21:14;;;;;;;;;;;;;;;19.73;50.43;101171.38;4942199;28;4209;-61
2023/03/21 00:24:00;;;;;;;;;;;;;;;19.74;50.39;101172.84;4939945;28;4445;-61
2023/03/21 00:26:27;;;;;;;;;;;;;;;19.73;50.50;101179.97;4938146;28;4175;-61
2023/03/21 00:28:53;;;;;;;;;;;;;;;19.74;50.40;101175.72;4937363;28;5223;-61
2023/03/21 00:31:19;;;;;;;;;;;;;;;19.73;50.29;101165.63;4945257;29;4209;-61
2023/03/21 00:33:48;;;;;;;;;;;;;;;19.72;50.50;101167.72;4945100;28;4262;-62
2023/03/21 00:36:14;;;;;;;;;;;;;;;19.71;50.48;101171.25;4945616;29;4156;-61
2023/03/21 00:38:41;;;;;;;;;;;;;;;19.71;50.47;101165.50;4936965;29;4267;-61
2023/03/21 00:41:08;;;;;;;;;;;;;;;19.70;50.52;101172.63;4941340;29;4168;-61
2023/03/21 00:43:50;;;;;;;;;;;;;;;19.69;50.41;101169.00;4934866;29;4301;-62
2023/03/21 00:46:17;;;;;;;;;;;;;;;19.70;50.30;101167.63;4945333;29;4087;-61
2023/03/21 00:48:44;;;;;;;;;;;;;;;19.70;50.58;101158.25;4940784;29;5650;-61
2023/03/21 00:51:12;;;;;;;;;;;;;;;19.69;50.59;101163.25;4944785;28;4204;-61
2023/03/21 00:53:38;;;;;;;;;;;;;;;19.69;50.27;101160.38;4942049;28;4140;-61
2023/03/21 00:56:04;;;;;;;;;;;;;;;19.69;50.32;101166.13;4931985;29;5407;-61
2023/03/21 00:58:31;;;;;;;;;;;;;;;19.68;50.43;101158.88;4942703;29;4051;-61
2023/03/21 01:00:57;;;;;;;;;;;;;;;19.68;50.49;101156.00;4936454;28;5320;-61
2023/03/21 01:03:25;;;;;;;;;;;;;;;19.66;50.48;101153.75;4935864;29;4171;-61
2023/03/21 01:06:04;;;;;;;;;;;;;;;19.67;50.36;101160.25;4944553;29;4179;-61
2023/03/21 01:08:31;;;;;;;;;;;;;;;19.67;50.54;101151.63;4933244;29;4181;-61
2023/03/21 01:11:16;;;;;;;;;;;;;;;19.65;50.36;101158.03;4944321;29;5217;-61
2023/03/21 01:13:43;;;;;;;;;;;;;;;19.65;50.37;101160.91;4920486;29;4254;-63
2023/03/21 01:16:23;;;;;;;;;;;;;;;19.65;50.30;101158.03;4945220;29;4213;-61
2023/03/21 01:18:49;;;;;;;;;;;;;;;19.64;50.34;101150.78;4945364;29;4406;-61
2023/03/21 01:21:16;;;;;;;;;;;;;;;19.64;50.31;101153.66;4945994;29;5286;-61
2023/03/21 01:23:42;;;;;;;;;;;;;;;19.64;50.36;101155.78;4944943;29;4164;-61
2023/03/21 01:26:09;;;;;;;;;;;;;;;19.64;50.21;101153.66;4941841;28;4176;-61
2023/03/21 01:28:35;;;;;;;;;;;;;;;19.63;50.27;101155.03;4945598;29;4201;-61
2023/03/21 01:31:02;;;;;;;;;;;;;;;19.64;50.26;101155.78;4934828;29;5271;-61
2023/03/21 01:33:29;;;;;;;;;;;;;;;19.63;50.17;101149.28;4919454;29;5082;-61
2023/03/21 01:35:55;;;;;;;;;;;;;;;19.63;50.16;101146.41;4944336;29;4254;-61
2023/03/21 01:38:37;;;;;;;;;;;;;;;19.62;50.22;101149.91;4929917;28;4167;-60
2023/03/21 01:41:03;;;;;;;;;;;;;;;19.62;50.13;101153.53;4934048;28;5460;-61
2023/03/21 01:43:44;;;;;;;;;;;;;;;19.61;50.09;101152.06;4917314;29;4205;-61
2023/03/21 01:46:11;;;;;;;;;;;;;;;19.62;50.10;101147.78;4917363;29;4231;-61
2023/03/21 01:49:11;;;;;;;;;;;;;;;19.62;50.05;101142.03;4901879;29;5134;-61
2023/03/21 01:51:49;;;;;;;;;;;;;;;19.61;50.14;101146.31;4939937;29;4113;-60
2023/03/21 01:54:19;;;;;;;;;;;;;;;19.60;50.06;101144.06;4929010;29;4198;-60
2023/03/21 01:56:46;;;;;;;;;;;;;;;19.57;50.18;101143.22;4939518;28;4123;-61
2023/03/21 01:59:20;;;;;;;;;;;;;;;19.57;50.02;101151.09;4922512;29;4242;-61
2023/03/21 02:02:06;;;;;;;;;;;;;;;19.55;50.20;101148.84;4942016;28;4178;-61
2023/03/21 02:04:37;;;;;;;;;;;;;;;19.55;50.06;101151.72;4921331;29;4401;-61
2023/03/21 02:07:13;;;;;;;;;;;;;;;19.55;50.10;101154.59;4945089;28;4170;-61
2023/03/21 02:09:45;;;;;;;;;;;;;;;19.55;50.16;101150.97;4919944;29;4999;-61
2023/03/21 02:12:15;;;;;;;;;;;;;;;19.54;49.97;101147.38;4921173;29;4218;-61
2023/03/21 02:14:42;;;;;;;;;;;;;;;19.54;50.15;101141.63;4920190;29;4170;-61
2023/03/21 02:17:26;;;;;;;;;;;;;;;19.54;50.07;101135.88;4907587;29;5462;-61
2023/03/21 02:20:07;;;;;;;;;;;;;;;19.54;49.99;101135.88;4915187;29;4165;-61
2023/03/21 02:22:52;;;;;;;;;;;;;;;19.53;49.97;101140.13;4919076;29;4144;-61
2023/03/21 02:25:38;;;;;;;;;;;;;;;19.53;50.08;101139.38;4939497;28;4164;-61
2023/03/21 02:28:08;;;;;;;;;;;;;;;19.53;50.10;101128.63;4918549;28;4172;-61
2023/03/21 02:30:46;;;;;;;;;;;;;;;19.52;50.03;101127.16;4902656;29;4174;-61
2023/03/21 02:33:34;;;;;;;;;;;;;;;19.53;49.98;101128.63;4909255;29;4206;-61
2023/03/21 02:36:01;;;;;;;;;;;;;;;19.53;50.00;101131.50;4915029;28;4596;-60
2023/03/21 02:38:46;;;;;;;;;;;;;;;19.50;50.03;101124.16;4920522;29;4259;-61
2023/03/21 02:52:44;;;;;;;;;;;;;;;19.51;49.92;101137.13;4921187;28;6014;-62
2023/03/21 02:55:14;;;;;;;;;;;;;;;19.50;49.90;101134.91;4901474;29;5267;-61
2023/03/21 02:57:55;;;;;;;;;;;;;;;19.49;49.88;101134.16;4913721;29;4046;-61
2023/03/21 03:00:26;;;;;;;;;;;;;;;19.50;49.98;101134.91;4927231;29;4143;-61
2023/03/21 03:02:53;;;;;;;;;;;;;;;19.50;49.87;101134.91;4920536;28;5353;-61
2023/03/21 03:05:36;;;;;;;;;;;;;;;19.49;49.70;101139.88;4944904;28;4178;-61
2023/03/21 03:08:08;;;;;;;;;;;;;;;19.49;49.81;101134.16;4900786;29;4194;-61
2023/03/21 03:10:50;;;;;;;;;;;;;;;19.49;49.81;101137.00;4935517;29;4213;-61
2023/03/21 03:13:23;;;;;;;;;;;;;;;19.47;49.75;101142.69;4923128;29;6017;-61
2023/03/21 03:15:55;;;;;;;;;;;;;;;19.47;49.89;101142.69;4911267;29;4039;-61
2023/03/21 03:18:32;;;;;;;;;;;;;;;19.48;49.96;101144.16;4920051;28;4108;-61
2023/03/21 03:21:27;;;;;;;;;;;;;;;19.46;49.99;101126.81;4924730;29;4305;-61
2023/03/21 03:24:05;;;;;;;;;;;;;;;19.46;49.87;101135.41;4902748;28;5314;-61
2023/03/21 03:26:33;;;;;;;;;;;;;;;19.46;49.90;101135.41;4904460;29;4156;-61
2023/03/21 03:29:04;;;;;;;;;;;;;;;19.44;49.91;101133.19;4927946;29;5239;-61
2023/03/21 03:31:36;;;;;;;;;;;;;;;19.44;49.90;101123.81;4914339;28;5528;-61
2023/03/21 03:34:05;;;;;;;;;;;;;;;19.44;50.07;101138.19;4920563;28;4297;-61
2023/03/21 03:36:38;;;;;;;;;;;;;;;19.45;49.79;101139.69;4918470;29;4023;-61
2023/03/21 03:39:12;;;;;;;;;;;;;;;19.45;49.80;101137.56;4934713;28;4142;-60
2023/03/21 03:41:46;;;;;;;;;;;;;;;19.48;49.63;101131.94;4920214;29;4045;-61
2023/03/21 03:44:37;;;;;;;;;;;;;;;19.48;49.55;101132.66;4921462;29;6411;-60
2023/03/21 03:47:09;;;;;;;;;;;;;;;19.50;49.40;101135.66;4934412;28;4184;-60
2023/03/21 03:49:47;;;;;;;;;;;;;;;19.53;49.35;101131.50;4903261;29;4256;-62
2023/03/21 03:52:25;;;;;;;;;;;;;;;19.56;49.28;101124.50;4919914;29;3922;-61
2023/03/21 03:54:58;;;;;;;;;;;;;;;19.57;49.24;101133.84;4911411;28;4500;-61
2023/03/21 03:57:25;;;;;;;;;;;;;;;19.59;49.21;101137.56;4935171;29;4163;-61
2023/03/21 03:59:52;;;;;;;;;;;;;;;19.60;49.24;101138.31;4948793;28;4173;-61
2023/03/21 04:02:42;;;;;;;;;;;;;;;19.60;49.02;101133.31;4942053;28;4166;-61
2023/03/21 04:05:08;;;;;;;;;;;;;;;19.60;49.33;101121.81;4931418;29;5110;-60
2023/03/21 04:07:35;;;;;;;;;;;;;;;19.61;49.34;101134.06;4937203;29;4227;-61
2023/03/21 04:10:01;;;;;;;;;;;;;;;19.61;49.37;101131.22;4944487;29;4123;-61
2023/03/21 04:12:30;;;;;;;;;;;;;;;19.62;49.39;101135.56;4922914;29;4280;-61
2023/03/21 04:15:16;;;;;;;;;;;;;;;19.62;49.45;101127.69;4937012;28;4199;-60
2023/03/21 04:17:47;;;;;;;;;;;;;;;19.63;49.50;101120.56;4938680;28;4672;-60
2023/03/21 04:20:13;;;;;;;;;;;;;;;19.66;49.39;101121.41;4946505;29;4185;-61
2023/03/21 04:22:55;;;;;;;;;;;;;;;19.66;49.35;101124.28;4922236;28;4240;-61
2023/03/21 04:25:22;;;;;;;;;;;;;;;19.69;49.36;101125.16;4921816;29;4153;-61
2023/03/21 04:27:58;;;;;;;;;;;;;;;19.68;49.56;101118.66;4935954;28;4196;-61
2023/03/21 04:30:34;;;;;;;;;;;;;;;19.68;49.60;101121.53;4938577;29;4251;-61
2023/03/21 04:33:06;;;;;;;;;;;;;;;19.69;49.50;101120.16;4919649;29;4136;-61
2023/03/21 04:35:35;;;;;;;;;;;;;;;19.68;49.80;101118.66;4921092;29;5223;-61
2023/03/21 04:38:03;;;;;;;;;;;;;;;19.67;49.82;101123.63;4925251;28;4109;-61
2023/03/21 04:40:30;;;;;;;;;;;;;;;19.67;49.78;101123.63;4934778;29;4222;-61
2023/03/21 04:42:56;;;;;;;;;;;;;;;19.67;49.87;101123.63;4944570;28;4180;-60
2023/03/21 04:45:23;;;;;;;;;;;;;;;19.67;49.64;101117.16;4942938;28;4195;-61
2023/03/21 04:47:49;;;;;;;;;;;;;;;19.69;49.67;101133.78;4920751;29;4032;-61
2023/03/21 04:50:16;;;;;;;;;;;;;;;19.69;49.57;101128.03;4947396;28;4157;-61
2023/03/21 04:52:42;;;;;;;;;;;;;;;19.70;49.65;101123.78;4923060;28;4316;-61
2023/03/21 04:55:09;;;;;;;;;;;;;;;19.71;49.51;101128.16;4943261;28;4141;-61
2023/03/21 04:57:37;;;;;;;;;;;;;;;19.73;49.56;101128.25;4946317;28;4043;-60
2023/03/21 05:00:08;;;;;;;;;;;;;;;19.74;49.50;101124.00;4919339;29;4501;-61
2023/03/21 05:02:35;;;;;;;;;;;;;;;19.75;49.85;101128.38;4919409;29;4191;-61
2023/03/21 05:05:01;;;;;;;;;;;;;;;19.74;49.67;101118.25;4944091;28;4070;-61
2023/03/21 05:07:30;;;;;;;;;;;;;;;19.74;49.90;101124.00;4933085;28;4324;-61
2023/03/21 05:09:56;;;;;;;;;;;;;;;19.74;49.81;101121.13;4924203;28;4241;-61
2023/03/21 05:12:22;;;;;;;;;;;;;;;19.74;49.81;101115.38;4947805;28;5248;-61
2023/03/21 05:14:49;;;;;;;;;;;;;;;19.72;49.65;101116.00;4937847;28;5460;-61
2023/03/21 05:17:21;;;;;;;;;;;;;;;19.74;49.69;101119.00;4933516;29;4217;-61
2023/03/21 05:19:51;;;;;;;;;;;;;;;19.75;49.71;101119.75;4945531;28;4121;-61
2023/03/21 05:22:18;;;;;;;;;;;;;;;19.76;49.85;101109.75;4923546;29;5269;-61
2023/03/21 05:24:49;;;;;;;;;;;;;;;19.76;49.76;101121.97;4932476;28;4197;-61
2023/03/21 05:27:35;;;;;;;;;;;;;;;19.77;49.98;101122.72;4933774;29;4024;-61
2023/03/21 05:30:09;;;;;;;;;;;;;;;19.78;49.82;101119.22;4935344;29;4299;-61
2023/03/21 05:33:01;;;;;;;;;;;;;;;19.79;49.82;101119.94;4919208;29;5508;-60
2023/03/21 05:35:27;;;;;;;;;;;;;;;19.78;50.00;101113.47;4933599;28;4124;-61
2023/03/21 05:37:57;;;;;;;;;;;;;;;19.78;49.96;101113.47;4934305;28;4148;-60
2023/03/21 05:40:26;;;;;;;;;;;;;;;19.79;49.89;101114.19;4931826;29;4277;-61
2023/03/21 05:42:55;;;;;;;;;;;;;;;19.79;50.03;101119.94;4933361;28;4174;-60
2023/03/21 05:45:23;;;;;;;;;;;;;;;19.79;49.76;101125.69;4936300;29;5216;-60
2023/03/21 05:47:50;;;;;;;;;;;;;;;19.78;49.94;101122.09;4938152;28;4232;-61
2023/03/21 05:50:18;;;;;;;;;;;;;;;19.77;49.88;101122.72;4918151;29;4192;-61
2023/03/21 05:52:57;;;;;;;;;;;;;;;19.77;49.98;101120.59;4933324;28;4198;-61
2023/03/21 05:55:24;;;;;;;;;;;;;;;19.78;49.92;101124.22;4934833;29;4152;-60
2023/03/21 05:57:51;;;;;;;;;;;;;;;19.79;49.97;101122.81;4932770;28;4031;-60
2023/03/21 06:00:23;;;;;;;;;;;;;;;19.80;49.79;101121.44;4930096;29;4004;-60
2023/03/21 06:03:06;;;;;;;;;;;;;;;19.81;49.92;101125.81;4937784;28;5276;-61
2023/03/21 06:06:06;;;;;;;;;;;;;;;19.81;50.00;101125.81;4931692;29;4164;-61
2023/03/21 06:08:37;;;;;;;;;;;;;;;19.83;50.00;101128.78;4938642;29;5134;-61
2023/03/21 06:11:16;;;;;;;;;;;;;;;19.82;50.25;101124.44;4928106;29;4094;-60
2023/03/21 06:13:43;;;;;;;;;;;;;;;19.82;50.03;101125.19;4901827;29;4189;-64
2023/03/21 06:16:09;;;;;;;;;;;;;;;19.83;50.23;101131.66;4917339;29;4228;-61
2023/03/21 06:18:36;;;;;;;;;;;;;;;19.82;50.03;101133.06;4933122;28;4261;-61
2023/03/21 06:21:32;;;;;;;;;;;;;;;19.81;50.20;101137.31;4925166;28;5265;-61
2023/03/21 06:23:58;;;;;;;;;;;;;;;19.81;50.13;101134.44;4910803;29;5379;-61
2023/03/21 06:26:24;;;;;;;;;;;;;;;19.81;50.11;101132.31;4937821;28;4032;-61
2023/03/21 06:28:52;;;;;;;;;;;;;;;19.81;50.07;101134.44;4934686;28;5315;-61
2023/03/21 06:31:22;;;;;;;;;;;;;;;19.82;50.04;101130.19;4931662;29;4181;-61
2023/03/21 06:33:50;;;;;;;;;;;;;;;19.84;50.06;101139.66;4918372;29;4212;-62
2023/03/21 06:36:16;;;;;;;;;;;;;;;19.84;50.10;101141.78;4919119;29;4207;-61
2023/03/21 06:38:43;;;;;;;;;;;;;;;19.85;50.07;101134.66;4935181;28;4412;-63
2023/03/21 06:41:10;;;;;;;;;;;;;;;19.86;50.31;101134.03;4928662;29;4202;-61
2023/03/21 06:43:41;;;;;;;;;;;;;;;19.87;50.44;101134.75;4935962;28;5323;-61
2023/03/21 06:46:08;;;;;;;;;;;;;;;19.87;50.28;101126.13;4939873;28;5290;-61
2023/03/21 06:48:36;;;;;;;;;;;;;;;19.85;50.24;101134.66;4919858;29;4150;-61
2023/03/21 06:51:03;;;;;;;;;;;;;;;19.78;50.33;101129.97;4932380;28;4130;-65
2023/03/21 06:53:32;;;;;;;;;;;;;;;18.23;48.05;101139.19;4928389;29;4190;-63
2023/03/21 06:56:23;;;;;;;;;;;;;;;17.41;49.01;101137.81;4939184;28;6249;-64
2023/03/21 06:58:50;;;;;;;;;;;;;;;17.61;49.22;101134.72;4926518;28;4189;-68
2023/03/21 07:01:33;;;;;;;;;;;;;;;17.35;51.50;101137.44;4937166;28;4286;-71
2023/03/21 07:04:05;;;;;;;;;;;;;;;16.64;54.67;101142.88;4914578;29;4699;-72
2023/03/21 07:06:31;;;;;;;;;;;;;;;16.65;53.15;101137.91;4915741;29;4309;-69
2023/03/21 07:08:58;;;;;;;;;;;;;;;16.36;52.30;101146.72;4911552;29;4170;-66
2023/03/21 07:11:24;;;;;;;;;;;;;;;15.96;53.88;101140.47;4932685;28;4657;-70
2023/03/21 07:13:50;;;;;;;;;;;;;;;16.13;53.42;101145.22;4919334;28;6285;-72
2023/03/21 07:16:17;;;;;;;;;;;;;;;16.07;53.49;101139.81;4940340;28;4270;-70
2023/03/21 07:18:43;;;;;;;;;;;;;;;15.75;53.91;101144.03;4945127;28;4223;-70
2023/03/21 07:21:10;;;;;;;;;;;;;;;16.21;52.86;101151.47;4937713;28;4219;-66
2023/03/21 07:23:38;;;;;;;;;;;;;;;17.19;50.99;101142.88;4925298;28;4217;-68
2023/03/21 07:26:04;;;;;;;;;;;;;;;18.23;50.05;101151.38;4939684;28;4161;-68
2023/03/21 07:28:31;;;;;;;;;;;;;;;18.82;49.23;101146.25;4940978;28;4276;-71
2023/03/21 07:30:58;;;;;;;;;;;;;;;19.43;48.38;101148.94;4934732;28;5442;-74
2023/03/21 07:33:24;;;;;;;;;;;;;;;19.75;47.97;101145.63;4936967;28;4350;-69
2023/03/21 07:35:52;;;;;;;;;;;;;;;19.44;46.99;101152.53;4916906;28;4159;-67
2023/03/21 07:38:20;;;;;;;;;;;;;;;19.14;47.36;101152.34;4924058;28;4354;-65
2023/03/21 07:40:47;;;;;;;;;;;;;;;19.09;47.61;101156.38;4928216;28;5216;-71
2023/03/21 07:43:13;;;;;;;;;;;;;;;19.10;47.29;101152.13;4942320;28;4176;-71
2023/03/21 07:45:42;;;;;;;;;;;;;;;19.09;47.26;101150.63;4925955;28;4194;-72
2023/03/21 07:48:09;;;;;;;;;;;;;;;19.05;47.26;101150.41;4945542;28;4114;-64
2023/03/21 07:50:35;;;;;;;;;;;;;;;19.03;47.45;101153.91;4945921;28;4274;-64
2023/03/21 07:53:02;;;;;;;;;;;;;;;18.91;47.40;101153.22;4939531;29;5355;-67
2023/03/21 07:55:28;;;;;;;;;;;;;;;18.72;48.02;101153.53;4950654;28;4120;-66
2023/03/21 07:57:54;;;;;;;;;;;;;;;18.63;48.21;101153.03;4943317;28;4256;-64
2023/03/21 08:00:24;;;;;;;;;;;;;;;18.73;48.18;101150.00;4938221;28;5524;-65
2023/03/21 08:02:53;;;;;;;;;;;;;;;18.94;47.66;101140.47;4939779;28;5642;-64
2023/03/21 08:05:24;;;;;;;;;;;;;;;19.13;47.57;101144.38;4944258;28;4207;-64
2023/03/21 08:07:51;;;;;;;;;;;;;;;19.25;48.02;101142.94;4939326;29;4142;-64
2023/03/21 08:10:17;;;;;;;;;;;;;;;19.34;47.94;101146.25;4942054;28;4149;-65
2023/03/21 08:12:44;;;;;;;;;;;;;;;19.40;47.79;101149.44;4938582;28;4276;-65
2023/03/21 08:15:11;;;;;;;;;;;;;;;19.45;47.98;101145.44;4945553;28;4148;-64
2023/03/21 08:17:38;;;;;;;;;;;;;;;19.50;47.61;101147.13;4946382;28;4108;-64
2023/03/21 08:20:07;;;;;;;;;;;;;;;19.54;47.56;101144.50;4940876;28;4131;-64
2023/03/21 08:22:33;;;;;;;;;;;;;;;19.57;47.77;101145.34;4943208;28;4139;-64
2023/03/21 08:25:00;;;;;;;;;;;;;;;19.59;47.89;101149.06;4944456;28;4122;-64
2023/03/21 08:27:26;;;;;;;;;;;;;;;19.62;47.34;101147.78;4944394;28;5264;-65
2023/03/21 08:29:52;;;;;;;;;;;;;;;19.64;48.22;101147.91;4940514;28;4156;-64
2023/03/21 08:32:19;;;;;;;;;;;;;;;19.64;47.75;101147.91;4941553;28;6465;-64
2023/03/21 08:34:45;;;;;;;;;;;;;;;19.90;48.47;101135.59;4943800;28;4195;-66
2023/03/21 08:37:12;;;;;;;;;;;;;;;20.14;48.08;101136.16;4944775;28;4300;-68
2023/03/21 08:39:38;;;;;;;;;;;;;;;20.23;48.28;101146.69;4944021;28;5428;-68
2023/03/21 08:42:04;;;;;;;;;;;;;;;20.35;47.50;101143.69;4947331;28;4245;-64
2023/03/21 08:44:31;;;;;;;;;;;;;;;20.17;47.94;101146.34;4944242;28;4233;-65
2023/03/21 08:46:57;;;;;;;;;;;;;;;20.11;48.04;101151.78;4943096;28;4050;-69
2023/03/21 08:49:24;;;;;;;;;;;;;;;20.08;48.43;101148.78;4936609;28;4261;-68
2023/03/21 08:51:54;;;;;;;;;;;;;;;20.05;48.40;101147.22;4942116;28;4164;-69
2023/03/21 08:54:20;;;;;;;;;;;;;;;19.99;48.72;101149.75;4946761;28;4191;-69
2023/03/21 08:56:46;;;;;;;;;;;;;;;19.99;48.92;101141.13;4945940;28;4527;-68
2023/03/21 08:59:13;;;;;;;;;;;;;;;20.06;48.82;101142.94;4944235;28;4361;-67
2023/03/21 09:01:40;;;;;;;;;;;;;;;20.36;48.12;101145.16;4951933;28;4295;-69
2023/03/21 09:04:09;;;;;;;;;;;;;;;20.49;47.83;101142.25;4951389;28;5089;-69
2023/03/21 09:06:36;;;;;;;;;;;;;;;20.61;47.75;101135.66;4952661;28;4339;-69
2023/03/21 09:09:04;;;;;;;;;;;;;;;20.55;47.73;101138.19;4944889;28;4179;-75
2023/03/21 09:11:31;;;;;;;;;;;;;;;20.84;47.73;101134.63;4915235;28;4168;-70
2023/03/21 09:13:57;;;;;;;;;;;;;;;20.93;47.76;101137.22;4951444;28;4180;-68
2023/03/21 09:16:23;;;;;;;;;;;;;;;20.98;47.22;101137.44;4948479;28;4144;-71
2023/03/21 09:18:54;;;;;;;;;;;;;;;21.01;47.40;101142.66;4945475;28;4880;-71
2023/03/21 09:21:21;;;;;;;;;;;;;;;21.03;47.44;101144.91;4951259;28;4198;-69
2023/03/21 09:23:51;;;;;;;;;;;;;;;20.98;47.71;101143.19;4951552;28;5200;-69
2023/03/21 09:26:18;;;;;;;;;;;;;;;20.65;48.47;101147.38;4956293;28;4161;-72
2023/03/21 09:28:45;;;;;;;;;;;;;;;20.44;49.23;101151.31;4946644;28;5584;-66
2023/03/21 09:31:11;;;;;;;;;;;;;;;20.51;49.60;101153.13;4953479;28;4879;-66
2023/03/21 09:33:39;;;;;;;;;;;;;;;20.49;49.31;101162.38;4950579;28;4142;-68
2023/03/21 09:36:10;;;;;;;;;;;;;;;20.33;50.10;101147.19;4951524;28;5293;-68
2023/03/21 09:38:38;;;;;;;;;;;;;;;20.32;50.20;101142.84;4953079;28;4140;-71
2023/03/21 09:41:07;;;;;;;;;;;;;;;20.40;50.12;101151.13;4952068;28;5576;-68
2023/03/21 09:43:34;;;;;;;;;;;;;;;20.42;49.75;101143.34;4952230;28;4145;-69
2023/03/21 09:46:03;;;;;;;;;;;;;;;20.50;49.69;101143.00;4951136;28;4190;-71
2023/03/21 09:48:35;;;;;;;;;;;;;;;17.02;52.30;101140.31;4944813;28;4183;-72
2023/03/21 09:51:05;;;;;;;;;;;;;;;18.87;51.38;101129.28;4930419;28;5469;-65
2023/03/21 09:53:32;;;;;;;;;;;;;;;19.86;50.07;101130.41;4920714;28;4178;-67
2023/03/21 09:55:59;;;;;;;;;;;;;;;20.24;49.39;101136.66;4925081;28;4344;-66
2023/03/21 09:58:27;;;;;;;;;;;;;;;20.41;49.07;101138.97;4952619;28;4336;-68
2023/03/21 10:01:20;;;;;;;;;;;;;;;20.51;48.92;101133.72;4934574;28;4160;-70
2023/03/21 10:03:49;;;;;;;;;;;;;;;20.56;48.60;101133.94;4925038;28;5255;-67
2023/03/21 10:06:15;;;;;;;;;;;;;;;20.58;49.04;101128.31;4950210;28;4138;-69
2023/03/21 10:08:43;;;;;;;;;;;;;;;20.61;48.70;101124.13;4926162;28;4159;-71
2023/03/21 10:11:26;;;;;;;;;;;;;;;20.34;49.60;101117.06;4924029;28;4231;-68
2023/03/21 10:13:57;;;;;;;;;;;;;;;20.37;49.56;101115.75;4949306;28;4100;-66
2023/03/21 10:16:26;;;;;;;;;;;;;;;20.39;49.66;101115.88;4952571;28;4194;-66
2023/03/21 10:18:52;;;;;;;;;;;;;;;20.50;49.95;101103.47;4947420;28;4157;-72
2023/03/21 10:21:22;;;;;;;;;;;;;;;20.50;50.13;101103.47;4946985;28;5328;-67
2023/03/21 10:24:19;;;;;;;;;;;;;;;20.62;50.13;101111.25;5062890;27;2052;-68
2023/03/21 10:26:45;;;;;;;;;;;;;;;20.54;50.17;101105.06;5063482;28;2696;-68
2023/03/21 10:29:12;;;;;;;;;;;;;;;20.81;50.21;101092.75;5057814;28;3082;-66
2023/03/21 10:31:39;;;;;;;;;;;;;;;21.03;49.32;101098.81;5059245;28;5213;-67
2023/03/21 10:34:08;;;;;;;;;;;;;;;21.14;49.35;101092.13;5063363;28;4550;-70
2023/03/21 10:36:35;;;;;;;;;;;;;;;21.18;49.01;101092.31;5055615;28;3626;-65
2023/03/21 10:39:03;;;;;;;;;;;;;;;21.26;49.02;101091.97;5063082;28;1791;-65
2023/03/21 10:41:30;;;;;;;;;;;;;;;21.00;48.86;101094.34;5076319;28;1802;-65
2023/03/21 10:44:03;;;;;;;;;;;;;;;20.80;49.34;101089.13;5058403;28;1941;-64
2023/03/21 10:46:30;;;;;;;;;;;;;;;20.76;49.13;101094.69;5051231;28;2467;-68
2023/03/21 10:48:58;;;;;;;;;;;;;;;20.83;49.18;101093.56;5061575;28;2203;-70
2023/03/21 10:51:26;;;;;;;;;;;;;;;20.84;49.18;101095.06;5054060;28;2910;-69
2023/03/21 10:53:53;;;;;;;;;;;;;;;20.82;49.34;101103.63;5049900;28;3016;-69
2023/03/21 10:56:21;;;;;;;;;;;;;;;20.80;49.36;101094.88;5059146;28;1744;-67
2023/03/21 10:58:48;;;;;;;;;;;;;;;20.72;49.61;101094.47;5061523;28;1717;-68
2023/03/21 11:01:20;;;;;;;;;;;;;;;20.67;49.56;101092.78;5056531;28;2922;-69
2023/03/21 11:03:47;;;;;;;;;;;;;;;20.69;49.63;101090.75;5073480;28;2840;-66
2023/03/21 11:06:21;;;;;;;;;;;;;;;21.08;49.20;101091.88;5054535;28;2874;-66
2023/03/21 11:08:48;;;;;;;;;;;;;;;21.25;48.83;101085.44;5060508;28;2382;-68
2023/03/21 11:11:19;;;;;;;;;;;;;;;21.10;48.59;101086.94;5060329;28;1713;-68
2023/03/21 11:13:46;;;;;;;;;;;;;;;21.03;48.92;101084.44;5057986;28;2920;-68
2023/03/21 11:16:21;;;;;;;;;;;;;;;21.09;48.92;101085.44;5049191;28;2968;-64
2023/03/21 11:18:49;;;;;;;;;;;;;;;21.08;49.14;101083.22;5059303;28;2414;-63
2023/03/21 11:21:15;;;;;;;;;;;;;;;21.13;48.65;101073.38;5060173;28;2910;-67
2023/03/21 11:23:46;;;;;;;;;;;;;;;20.83;49.37;101076.31;5066200;28;2801;-68
2023/03/21 11:26:18;;;;;;;;;;;;;;;21.07;49.24;101070.22;5071244;28;2908;-66
2023/03/21 11:28:45;;;;;;;;;;;;;;;21.22;48.85;101066.59;5078379;28;2881;-68
2023/03/21 11:31:11;;;;;;;;;;;;;;;21.03;49.21;101058.53;5073766;28;2872;-71
2023/03/21 11:33:39;;;;;;;;;;;;;;;21.08;48.62;101063.06;5081085;28;2618;-71
2023/03/21 11:36:23;;;;;;;;;;;;;;;21.04;48.66;101048.47;5063760;28;2857;-65
2023/03/21 11:38:51;;;;;;;;;;;;;;;21.10;48.54;101051.66;5064373;28;2774;-69
2023/03/21 11:41:24;;;;;;;;;;;;;;;21.10;48.45;101045.88;5065371;28;2924;-68
2023/03/21 11:43:51;;;;;;;;;;;;;;;21.13;48.69;101051.09;5068059;28;4829;-70
2023/03/21 11:46:21;;;;;;;;;;;;;;;21.05;48.80;101044.19;5062972;28;3118;-69
2023/03/21 11:48:47;;;;;;;;;;;;;;;20.01;48.30;101043.50;5052196;28;5046;-68
2023/03/21 11:51:20;;;;;;;;;;;;;;;19.64;48.24;101046.63;5059299;28;3241;-68
2023/03/21 11:53:48;;;;;;;;;;;;;;;19.86;49.26;101038.44;5062735;28;3111;-68
2023/03/21 11:56:19;;;;;;;;;;;;;;;20.63;49.68;101035.03;5066611;28;2792;-70
2023/03/21 11:59:05;;;;;;;;;;;;;;;21.05;48.62;101038.44;5061890;28;2996;-68
2023/03/21 12:01:51;;;;;;;;;;;;;;;20.94;48.19;101034.38;5062382;28;2753;-63
2023/03/21 12:04:30;;;;;;;;;;;;;;;20.85;48.11;101032.50;5064229;28;2931;-65
2023/03/21 12:07:12;;;;;;;;;;;;;;;21.12;47.92;101034.47;5058597;28;2899;-64
2023/03/21 12:09:51;;;;;;;;;;;;;;;21.18;48.23;101028.22;5059539;28;5064;-66
2023/03/21 12:12:32;;;;;;;;;;;;;;;21.20;48.28;101031.94;5064354;28;3068;-64
2023/03/21 12:15:24;;;;;;;;;;;;;;;21.22;48.20;101025.53;5059279;28;3036;-61
2023/03/21 12:18:00;;;;;;;;;;;;;;;21.41;48.19;101015.59;5064509;28;3032;-61
2023/03/21 12:20:36;;;;;;;;;;;;;;;21.17;48.12;101010.22;5059445;28;2697;-64
2023/03/21 12:23:07;;;;;;;;;;;;;;;21.10;48.04;101012.06;5055745;28;2897;-64
2023/03/21 12:25:55;;;;;;;;;;;;;;;21.06;48.26;101006.13;5056607;28;2871;-61
2023/03/21 12:28:25;;;;;;;;;;;;;;;21.05;48.06;101006.78;5059236;28;2952;-62
2023/03/21 12:31:04;;;;;;;;;;;;;;;21.07;47.70;100995.34;5078906;28;3017;-66
2023/03/21 12:33:40;;;;;;;;;;;;;;;21.23;48.24;100992.47;5063720;28;2423;-64
2023/03/21 12:36:26;;;;;;;;;;;;;;;20.82;47.28;100993.47;5064383;28;2804;-63
2023/03/21 12:39:11;;;;;;;;;;;;;;;20.89;47.35;100986.59;5060637;28;2967;-65
2023/03/21 12:41:37;;;;;;;;;;;;;;;21.15;47.20;100987.09;5063674;28;3014;-65
2023/03/21 12:44:08;;;;;;;;;;;;;;;21.26;47.25;100982.53;5057789;28;3023;-65
2023/03/21 12:46:38;;;;;;;;;;;;;;;21.32;47.19;100974.88;5058518;28;2994;-64
2023/03/21 12:49:20;;;;;;;;;;;;;;;21.00;47.05;100985.69;5064551;28;2864;-61
2023/03/21 12:51:47;;;;;;;;;;;;;;;20.70;48.07;100973.50;5060699;28;2696;-61
2023/03/21 12:54:16;;;;;;;;;;;;;;;20.64;47.86;100987.63;5058548;28;3081;-63
2023/03/21 12:56:45;;;;;;;;;;;;;;;20.44;47.94;100976.59;5056337;28;3006;-63
2023/03/21 12:59:15;;;;;;;;;;;;;;;20.44;48.22;100979.47;5059629;28;1758;-61
2023/03/21 13:01:41;;;;;;;;;;;;;;;20.49;47.99;100975.41;5052093;28;4476;-61
2023/03/21 13:04:27;;;;;;;;;;;;;;;20.46;47.96;100967.34;5060045;28;2975;-61
2023/03/21 13:06:53;;;;;;;;;;;;;;;20.47;47.92;100966.69;5061318;28;2844;-61
2023/03/21 13:09:23;;;;;;;;;;;;;;;20.46;47.89;100968.06;5055927;28;2869;-61
2023/03/21 13:12:06;;;;;;;;;;;;;;;20.45;48.03;100960.81;5058301;28;2951;-61
2023/03/21 13:14:34;;;;;;;;;;;;;;;20.44;47.90;100956.47;5056968;28;3044;-61
2023/03/21 13:17:05;;;;;;;;;;;;;;;20.40;47.80;100962.03;5059227;28;2562;-61
2023/03/21 13:19:36;;;;;;;;;;;;;;;20.42;47.76;100955.63;5056968;28;3002;-61